sensor_id;sensor_type;location;lat;lon;timestamp;P1;durP1;ratioP1;P2;durP2;ratioP2
70414;SDS011;57837;52.064;113.478;2023-11-19T00:01:47;15.43;;;9.02;;
70414;SDS011;57837;52.064;113.478;2023-11-19T00:04:50;20.42;;;10.10;;
70414;SDS011;57837;52.064;113.478;2023-11-19T00:07:54;19.63;;;9.82;;
70414;SDS011;57837;52.064;113.478;2023-11-19T00:10:59;21.58;;;11.40;;
70414;SDS011;57837;52.064;113.478;2023-11-19T00:14:03;48.83;;;20.45;;
70414;SDS011;57837;52.064;113.478;2023-11-19T00:17:07;45.97;;;22.10;;
70414;SDS011;57837;52.064;113.478;2023-11-19T00:20:13;50.70;;;23.50;;
70414;SDS011;57837;52.064;113.478;2023-11-19T00:23:18;53.88;;;25.02;;
70414;SDS011;57837;52.064;113.478;2023-11-19T00:26:22;38.53;;;17.20;;
70414;SDS011;57837;52.064;113.478;2023-11-19T00:29:27;40.97;;;15.80;;
70414;SDS011;57837;52.064;113.478;2023-11-19T00:32:31;39.27;;;16.43;;
70414;SDS011;57837;52.064;113.478;2023-11-19T00:35:35;46.13;;;19.20;;
70414;SDS011;57837;52.064;113.478;2023-11-19T00:38:40;47.05;;;20.30;;
70414;SDS011;57837;52.064;113.478;2023-11-19T00:41:44;56.35;;;23.30;;
70414;SDS011;57837;52.064;113.478;2023-11-19T00:44:49;123.83;;;50.87;;
70414;SDS011;57837;52.064;113.478;2023-11-19T00:47:53;142.75;;;58.63;;
70414;SDS011;57837;52.064;113.478;2023-11-19T00:50:57;160.40;;;66.20;;
70414;SDS011;57837;52.064;113.478;2023-11-19T00:54:01;153.00;;;63.08;;
70414;SDS011;57837;52.064;113.478;2023-11-19T00:57:05;211.68;;;81.50;;
70414;SDS011;57837;52.064;113.478;2023-11-19T01:00:09;203.60;;;81.35;;
70414;SDS011;57837;52.064;113.478;2023-11-19T01:03:22;216.23;;;88.53;;
70414;SDS011;57837;52.064;113.478;2023-11-19T01:06:31;176.83;;;69.70;;
70414;SDS011;57837;52.064;113.478;2023-11-19T01:09:36;137.45;;;54.17;;
70414;SDS011;57837;52.064;113.478;2023-11-19T01:12:39;123.28;;;45.10;;
70414;SDS011;57837;52.064;113.478;2023-11-19T01:15:43;103.13;;;39.63;;
70414;SDS011;57837;52.064;113.478;2023-11-19T01:18:47;81.95;;;32.00;;
70414;SDS011;57837;52.064;113.478;2023-11-19T01:21:51;84.47;;;33.15;;
70414;SDS011;57837;52.064;113.478;2023-11-19T01:24:55;67.75;;;24.10;;
70414;SDS011;57837;52.064;113.478;2023-11-19T01:28:00;45.80;;;18.08;;
70414;SDS011;57837;52.064;113.478;2023-11-19T01:31:05;48.22;;;21.50;;
70414;SDS011;57837;52.064;113.478;2023-11-19T01:34:11;46.00;;;19.27;;
70414;SDS011;57837;52.064;113.478;2023-11-19T01:37:15;38.63;;;16.10;;
70414;SDS011;57837;52.064;113.478;2023-11-19T01:40:22;38.75;;;17.05;;
70414;SDS011;57837;52.064;113.478;2023-11-19T01:43:36;40.78;;;16.35;;
70414;SDS011;57837;52.064;113.478;2023-11-19T01:46:44;40.67;;;16.43;;
70414;SDS011;57837;52.064;113.478;2023-11-19T01:49:52;48.67;;;18.88;;
70414;SDS011;57837;52.064;113.478;2023-11-19T01:52:56;39.70;;;15.95;;
70414;SDS011;57837;52.064;113.478;2023-11-19T01:56:04;46.55;;;16.67;;
70414;SDS011;57837;52.064;113.478;2023-11-19T01:59:13;44.03;;;16.20;;
70414;SDS011;57837;52.064;113.478;2023-11-19T02:02:18;181.37;;;38.77;;
70414;SDS011;57837;52.064;113.478;2023-11-19T02:05:25;218.98;;;53.38;;
70414;SDS011;57837;52.064;113.478;2023-11-19T02:08:30;198.45;;;43.65;;
70414;SDS011;57837;52.064;113.478;2023-11-19T02:11:34;201.05;;;45.90;;
70414;SDS011;57837;52.064;113.478;2023-11-19T02:14:39;110.60;;;30.05;;
70414;SDS011;57837;52.064;113.478;2023-11-19T02:17:43;102.07;;;37.43;;
70414;SDS011;57837;52.064;113.478;2023-11-19T02:20:47;44.33;;;17.75;;
70414;SDS011;57837;52.064;113.478;2023-11-19T02:23:53;23.00;;;12.35;;
70414;SDS011;57837;52.064;113.478;2023-11-19T02:27:02;26.08;;;10.38;;
70414;SDS011;57837;52.064;113.478;2023-11-19T02:30:14;19.10;;;10.13;;
70414;SDS011;57837;52.064;113.478;2023-11-19T02:33:17;14.27;;;6.37;;
70414;SDS011;57837;52.064;113.478;2023-11-19T02:36:21;43.63;;;13.73;;
70414;SDS011;57837;52.064;113.478;2023-11-19T02:39:26;40.90;;;14.35;;
70414;SDS011;57837;52.064;113.478;2023-11-19T02:42:29;32.40;;;13.45;;
70414;SDS011;57837;52.064;113.478;2023-11-19T02:45:32;39.97;;;15.90;;
70414;SDS011;57837;52.064;113.478;2023-11-19T02:48:36;35.30;;;15.03;;
70414;SDS011;57837;52.064;113.478;2023-11-19T02:51:40;30.77;;;13.65;;
70414;SDS011;57837;52.064;113.478;2023-11-19T02:54:44;43.90;;;16.60;;
70414;SDS011;57837;52.064;113.478;2023-11-19T02:57:48;34.13;;;14.82;;
70414;SDS011;57837;52.064;113.478;2023-11-19T03:00:54;41.25;;;18.05;;
70414;SDS011;57837;52.064;113.478;2023-11-19T03:04:02;31.63;;;13.80;;
70414;SDS011;57837;52.064;113.478;2023-11-19T03:07:07;35.03;;;14.30;;
70414;SDS011;57837;52.064;113.478;2023-11-19T03:10:11;31.33;;;14.27;;
70414;SDS011;57837;52.064;113.478;2023-11-19T03:13:18;36.63;;;15.73;;
70414;SDS011;57837;52.064;113.478;2023-11-19T03:16:22;45.55;;;19.55;;
70414;SDS011;57837;52.064;113.478;2023-11-19T03:19:26;61.67;;;25.07;;
70414;SDS011;57837;52.064;113.478;2023-11-19T03:22:30;76.00;;;26.20;;
70414;SDS011;57837;52.064;113.478;2023-11-19T03:25:34;53.28;;;20.10;;
70414;SDS011;57837;52.064;113.478;2023-11-19T03:28:39;51.17;;;19.95;;
70414;SDS011;57837;52.064;113.478;2023-11-19T03:31:44;28.13;;;12.40;;
70414;SDS011;57837;52.064;113.478;2023-11-19T03:34:47;26.67;;;11.53;;
70414;SDS011;57837;52.064;113.478;2023-11-19T03:37:52;25.65;;;10.98;;
70414;SDS011;57837;52.064;113.478;2023-11-19T03:40:55;31.40;;;12.55;;
70414;SDS011;57837;52.064;113.478;2023-11-19T03:43:59;37.08;;;12.75;;
70414;SDS011;57837;52.064;113.478;2023-11-19T03:47:03;34.88;;;15.32;;
70414;SDS011;57837;52.064;113.478;2023-11-19T03:50:07;26.60;;;11.87;;
70414;SDS011;57837;52.064;113.478;2023-11-19T03:53:15;29.42;;;11.48;;
70414;SDS011;57837;52.064;113.478;2023-11-19T03:56:18;28.70;;;10.98;;
70414;SDS011;57837;52.064;113.478;2023-11-19T03:59:24;23.35;;;11.10;;
70414;SDS011;57837;52.064;113.478;2023-11-19T04:02:27;19.27;;;10.45;;
70414;SDS011;57837;52.064;113.478;2023-11-19T04:05:31;18.43;;;9.03;;
70414;SDS011;57837;52.064;113.478;2023-11-19T04:08:35;27.40;;;11.63;;
70414;SDS011;57837;52.064;113.478;2023-11-19T04:11:39;21.27;;;9.25;;
70414;SDS011;57837;52.064;113.478;2023-11-19T04:14:43;19.58;;;8.95;;
70414;SDS011;57837;52.064;113.478;2023-11-19T04:17:47;15.65;;;6.95;;
70414;SDS011;57837;52.064;113.478;2023-11-19T04:20:51;14.40;;;7.60;;
70414;SDS011;57837;52.064;113.478;2023-11-19T04:23:56;20.38;;;9.65;;
70414;SDS011;57837;52.064;113.478;2023-11-19T04:26:59;21.13;;;9.75;;
70414;SDS011;57837;52.064;113.478;2023-11-19T04:30:03;18.02;;;8.82;;
70414;SDS011;57837;52.064;113.478;2023-11-19T04:33:08;18.35;;;7.97;;
70414;SDS011;57837;52.064;113.478;2023-11-19T04:36:12;21.57;;;8.20;;
70414;SDS011;57837;52.064;113.478;2023-11-19T04:39:17;18.00;;;8.77;;
70414;SDS011;57837;52.064;113.478;2023-11-19T04:42:22;14.48;;;7.20;;
70414;SDS011;57837;52.064;113.478;2023-11-19T04:45:26;11.63;;;6.30;;
70414;SDS011;57837;52.064;113.478;2023-11-19T04:48:30;12.13;;;6.25;;
70414;SDS011;57837;52.064;113.478;2023-11-19T04:51:44;16.43;;;7.97;;
70414;SDS011;57837;52.064;113.478;2023-11-19T04:54:51;20.27;;;9.82;;
70414;SDS011;57837;52.064;113.478;2023-11-19T04:57:55;15.50;;;8.38;;
70414;SDS011;57837;52.064;113.478;2023-11-19T05:01:00;18.00;;;8.80;;
70414;SDS011;57837;52.064;113.478;2023-11-19T05:04:04;19.63;;;9.35;;
70414;SDS011;57837;52.064;113.478;2023-11-19T05:07:08;18.03;;;8.80;;
70414;SDS011;57837;52.064;113.478;2023-11-19T05:10:11;15.60;;;7.60;;
70414;SDS011;57837;52.064;113.478;2023-11-19T05:13:16;14.18;;;6.60;;
70414;SDS011;57837;52.064;113.478;2023-11-19T05:16:20;19.45;;;8.98;;
70414;SDS011;57837;52.064;113.478;2023-11-19T05:19:24;25.33;;;8.60;;
70414;SDS011;57837;52.064;113.478;2023-11-19T05:22:28;20.23;;;8.93;;
70414;SDS011;57837;52.064;113.478;2023-11-19T05:25:32;16.85;;;8.38;;
70414;SDS011;57837;52.064;113.478;2023-11-19T05:28:37;15.00;;;8.00;;
70414;SDS011;57837;52.064;113.478;2023-11-19T05:31:42;18.02;;;7.88;;
70414;SDS011;57837;52.064;113.478;2023-11-19T05:34:46;13.85;;;7.72;;
70414;SDS011;57837;52.064;113.478;2023-11-19T05:37:54;13.70;;;7.33;;
70414;SDS011;57837;52.064;113.478;2023-11-19T05:40:58;18.88;;;7.32;;
70414;SDS011;57837;52.064;113.478;2023-11-19T05:44:01;17.52;;;8.40;;
70414;SDS011;57837;52.064;113.478;2023-11-19T05:47:05;25.05;;;10.77;;
70414;SDS011;57837;52.064;113.478;2023-11-19T05:50:10;18.67;;;9.23;;
70414;SDS011;57837;52.064;113.478;2023-11-19T05:53:13;18.60;;;8.63;;
70414;SDS011;57837;52.064;113.478;2023-11-19T05:56:17;18.10;;;9.33;;
70414;SDS011;57837;52.064;113.478;2023-11-19T05:59:24;18.13;;;8.77;;
70414;SDS011;57837;52.064;113.478;2023-11-19T06:02:29;20.60;;;9.55;;
70414;SDS011;57837;52.064;113.478;2023-11-19T06:05:32;39.90;;;14.90;;
70414;SDS011;57837;52.064;113.478;2023-11-19T06:08:36;33.80;;;15.77;;
70414;SDS011;57837;52.064;113.478;2023-11-19T06:11:40;43.73;;;18.10;;
70414;SDS011;57837;52.064;113.478;2023-11-19T06:14:44;36.08;;;14.93;;
70414;SDS011;57837;52.064;113.478;2023-11-19T06:17:48;39.95;;;13.98;;
70414;SDS011;57837;52.064;113.478;2023-11-19T06:20:53;20.75;;;8.57;;
70414;SDS011;57837;52.064;113.478;2023-11-19T06:23:57;22.30;;;7.13;;
70414;SDS011;57837;52.064;113.478;2023-11-19T06:27:02;21.67;;;7.57;;
70414;SDS011;57837;52.064;113.478;2023-11-19T06:30:07;20.13;;;7.38;;
70414;SDS011;57837;52.064;113.478;2023-11-19T06:33:13;22.05;;;7.05;;
70414;SDS011;57837;52.064;113.478;2023-11-19T06:36:16;26.42;;;8.73;;
70414;SDS011;57837;52.064;113.478;2023-11-19T06:39:21;25.63;;;9.17;;
70414;SDS011;57837;52.064;113.478;2023-11-19T06:42:25;19.33;;;7.30;;
70414;SDS011;57837;52.064;113.478;2023-11-19T06:45:29;21.02;;;7.75;;
70414;SDS011;57837;52.064;113.478;2023-11-19T06:48:33;17.17;;;6.85;;
70414;SDS011;57837;52.064;113.478;2023-11-19T06:51:41;23.27;;;7.22;;
70414;SDS011;57837;52.064;113.478;2023-11-19T06:54:46;14.60;;;6.17;;
70414;SDS011;57837;52.064;113.478;2023-11-19T06:57:50;9.32;;;4.32;;
70414;SDS011;57837;52.064;113.478;2023-11-19T07:00:54;12.05;;;4.65;;
70414;SDS011;57837;52.064;113.478;2023-11-19T07:03:57;10.07;;;4.70;;
70414;SDS011;57837;52.064;113.478;2023-11-19T07:07:01;21.35;;;9.48;;
70414;SDS011;57837;52.064;113.478;2023-11-19T07:10:05;34.90;;;12.30;;
70414;SDS011;57837;52.064;113.478;2023-11-19T07:13:12;34.58;;;17.70;;
70414;SDS011;57837;52.064;113.478;2023-11-19T07:16:15;44.25;;;22.10;;
70414;SDS011;57837;52.064;113.478;2023-11-19T07:19:19;55.42;;;24.30;;
70414;SDS011;57837;52.064;113.478;2023-11-19T07:22:23;39.40;;;17.55;;
70414;SDS011;57837;52.064;113.478;2023-11-19T07:25:27;54.53;;;22.37;;
70414;SDS011;57837;52.064;113.478;2023-11-19T07:28:30;70.07;;;26.33;;
70414;SDS011;57837;52.064;113.478;2023-11-19T07:31:35;78.63;;;28.95;;
70414;SDS011;57837;52.064;113.478;2023-11-19T07:34:39;38.67;;;17.42;;
70414;SDS011;57837;52.064;113.478;2023-11-19T07:37:43;41.85;;;17.83;;
70414;SDS011;57837;52.064;113.478;2023-11-19T07:40:48;35.20;;;16.60;;
70414;SDS011;57837;52.064;113.478;2023-11-19T07:43:54;28.42;;;14.07;;
70414;SDS011;57837;52.064;113.478;2023-11-19T07:46:57;38.33;;;17.48;;
70414;SDS011;57837;52.064;113.478;2023-11-19T07:50:01;41.95;;;17.60;;
70414;SDS011;57837;52.064;113.478;2023-11-19T07:53:05;29.75;;;12.90;;
70414;SDS011;57837;52.064;113.478;2023-11-19T07:56:10;25.50;;;12.73;;
70414;SDS011;57837;52.064;113.478;2023-11-19T07:59:13;34.42;;;15.23;;
70414;SDS011;57837;52.064;113.478;2023-11-19T08:02:17;34.85;;;15.15;;
70414;SDS011;57837;52.064;113.478;2023-11-19T08:05:21;50.10;;;15.85;;
70414;SDS011;57837;52.064;113.478;2023-11-19T08:08:27;63.83;;;18.65;;
70414;SDS011;57837;52.064;113.478;2023-11-19T08:11:33;33.40;;;12.13;;
70414;SDS011;57837;52.064;113.478;2023-11-19T08:14:37;27.73;;;12.48;;
70414;SDS011;57837;52.064;113.478;2023-11-19T08:17:41;33.50;;;15.25;;
70414;SDS011;57837;52.064;113.478;2023-11-19T08:20:48;47.05;;;19.27;;
70414;SDS011;57837;52.064;113.478;2023-11-19T08:23:56;30.23;;;13.93;;
70414;SDS011;57837;52.064;113.478;2023-11-19T08:26:59;43.30;;;18.73;;
70414;SDS011;57837;52.064;113.478;2023-11-19T08:30:06;49.38;;;23.90;;
70414;SDS011;57837;52.064;113.478;2023-11-19T08:33:11;40.70;;;17.25;;
70414;SDS011;57837;52.064;113.478;2023-11-19T08:36:16;48.28;;;18.98;;
70414;SDS011;57837;52.064;113.478;2023-11-19T08:39:22;62.55;;;22.38;;
70414;SDS011;57837;52.064;113.478;2023-11-19T08:42:27;42.53;;;18.47;;
70414;SDS011;57837;52.064;113.478;2023-11-19T08:45:31;42.85;;;18.52;;
70414;SDS011;57837;52.064;113.478;2023-11-19T08:48:35;37.33;;;15.70;;
70414;SDS011;57837;52.064;113.478;2023-11-19T08:51:39;35.25;;;17.23;;
70414;SDS011;57837;52.064;113.478;2023-11-19T08:54:43;26.98;;;13.15;;
70414;SDS011;57837;52.064;113.478;2023-11-19T08:57:47;24.67;;;12.80;;
70414;SDS011;57837;52.064;113.478;2023-11-19T09:00:51;28.52;;;9.55;;
70414;SDS011;57837;52.064;113.478;2023-11-19T09:03:55;19.08;;;8.85;;
70414;SDS011;57837;52.064;113.478;2023-11-19T09:06:58;19.70;;;7.05;;
70414;SDS011;57837;52.064;113.478;2023-11-19T09:10:01;27.27;;;9.57;;
70414;SDS011;57837;52.064;113.478;2023-11-19T09:13:08;19.47;;;9.10;;
70414;SDS011;57837;52.064;113.478;2023-11-19T09:16:12;12.90;;;6.93;;
70414;SDS011;57837;52.064;113.478;2023-11-19T09:19:16;25.60;;;10.68;;
70414;SDS011;57837;52.064;113.478;2023-11-19T09:22:20;20.25;;;9.48;;
70414;SDS011;57837;52.064;113.478;2023-11-19T09:25:24;18.38;;;7.13;;
70414;SDS011;57837;52.064;113.478;2023-11-19T09:28:27;17.77;;;9.27;;
70414;SDS011;57837;52.064;113.478;2023-11-19T09:31:31;16.08;;;6.15;;
70414;SDS011;57837;52.064;113.478;2023-11-19T09:34:35;24.33;;;11.90;;
70414;SDS011;57837;52.064;113.478;2023-11-19T09:37:39;27.48;;;13.13;;
70414;SDS011;57837;52.064;113.478;2023-11-19T09:40:42;12.38;;;7.35;;
70414;SDS011;57837;52.064;113.478;2023-11-19T09:43:47;18.00;;;9.77;;
70414;SDS011;57837;52.064;113.478;2023-11-19T09:46:51;35.50;;;14.63;;
70414;SDS011;57837;52.064;113.478;2023-11-19T09:49:56;35.70;;;13.30;;
70414;SDS011;57837;52.064;113.478;2023-11-19T09:53:00;31.35;;;14.55;;
70414;SDS011;57837;52.064;113.478;2023-11-19T09:56:05;51.15;;;20.50;;
70414;SDS011;57837;52.064;113.478;2023-11-19T09:59:10;44.80;;;17.37;;
70414;SDS011;57837;52.064;113.478;2023-11-19T10:02:14;35.60;;;15.23;;
70414;SDS011;57837;52.064;113.478;2023-11-19T10:05:18;39.22;;;15.95;;
70414;SDS011;57837;52.064;113.478;2023-11-19T10:08:24;49.53;;;19.92;;
70414;SDS011;57837;52.064;113.478;2023-11-19T10:11:29;48.97;;;19.23;;
70414;SDS011;57837;52.064;113.478;2023-11-19T10:14:32;25.20;;;10.63;;
70414;SDS011;57837;52.064;113.478;2023-11-19T10:17:40;25.42;;;10.48;;
70414;SDS011;57837;52.064;113.478;2023-11-19T10:20:44;29.60;;;14.38;;
70414;SDS011;57837;52.064;113.478;2023-11-19T10:27:01;28.33;;;12.50;;
70414;SDS011;57837;52.064;113.478;2023-11-19T10:30:07;24.47;;;11.10;;
70414;SDS011;57837;52.064;113.478;2023-11-19T10:33:14;49.17;;;18.67;;
70414;SDS011;57837;52.064;113.478;2023-11-19T10:36:23;61.22;;;25.55;;
70414;SDS011;57837;52.064;113.478;2023-11-19T10:39:53;54.35;;;22.92;;
70414;SDS011;57837;52.064;113.478;2023-11-19T10:43:03;58.95;;;25.30;;
70414;SDS011;57837;52.064;113.478;2023-11-19T10:46:10;66.03;;;28.50;;
70414;SDS011;57837;52.064;113.478;2023-11-19T10:49:15;60.90;;;27.92;;
70414;SDS011;57837;52.064;113.478;2023-11-19T10:52:19;59.67;;;22.75;;
70414;SDS011;57837;52.064;113.478;2023-11-19T10:55:24;52.70;;;21.63;;
70414;SDS011;57837;52.064;113.478;2023-11-19T10:58:32;87.15;;;33.47;;
70414;SDS011;57837;52.064;113.478;2023-11-19T11:01:43;198.30;;;76.23;;
70414;SDS011;57837;52.064;113.478;2023-11-19T11:04:48;250.43;;;100.65;;
70414;SDS011;57837;52.064;113.478;2023-11-19T11:07:55;236.85;;;93.18;;
70414;SDS011;57837;52.064;113.478;2023-11-19T11:10:59;262.60;;;103.85;;
70414;SDS011;57837;52.064;113.478;2023-11-19T11:14:04;266.42;;;105.97;;
70414;SDS011;57837;52.064;113.478;2023-11-19T11:17:09;268.13;;;105.63;;
70414;SDS011;57837;52.064;113.478;2023-11-19T11:20:14;288.35;;;112.72;;
70414;SDS011;57837;52.064;113.478;2023-11-19T11:40:36;269.27;;;109.03;;
70414;SDS011;57837;52.064;113.478;2023-11-19T11:43:49;260.38;;;106.60;;
70414;SDS011;57837;52.064;113.478;2023-11-19T11:46:54;306.98;;;119.88;;
70414;SDS011;57837;52.064;113.478;2023-11-19T11:50:03;244.68;;;99.82;;
70414;SDS011;57837;52.064;113.478;2023-11-19T11:53:18;241.10;;;95.07;;
70414;SDS011;57837;52.064;113.478;2023-11-19T11:56:32;214.85;;;86.45;;
70414;SDS011;57837;52.064;113.478;2023-11-19T12:02:46;206.35;;;78.68;;
70414;SDS011;57837;52.064;113.478;2023-11-19T12:05:50;193.50;;;74.65;;
70414;SDS011;57837;52.064;113.478;2023-11-19T12:08:59;205.93;;;78.47;;
70414;SDS011;57837;52.064;113.478;2023-11-19T12:12:21;209.17;;;82.17;;
70414;SDS011;57837;52.064;113.478;2023-11-19T12:15:28;209.43;;;81.60;;
70414;SDS011;57837;52.064;113.478;2023-11-19T12:18:32;223.10;;;84.82;;
70414;SDS011;57837;52.064;113.478;2023-11-19T12:21:36;238.63;;;97.28;;
70414;SDS011;57837;52.064;113.478;2023-11-19T12:24:41;241.20;;;95.17;;
70414;SDS011;57837;52.064;113.478;2023-11-19T12:27:45;249.23;;;96.38;;
70414;SDS011;57837;52.064;113.478;2023-11-19T12:30:52;249.35;;;98.00;;
70414;SDS011;57837;52.064;113.478;2023-11-19T12:33:59;283.27;;;109.22;;
70414;SDS011;57837;52.064;113.478;2023-11-19T12:37:03;263.80;;;108.30;;
70414;SDS011;57837;52.064;113.478;2023-11-19T12:40:30;301.15;;;113.10;;
70414;SDS011;57837;52.064;113.478;2023-11-19T12:43:34;224.98;;;84.47;;
70414;SDS011;57837;52.064;113.478;2023-11-19T12:46:41;255.57;;;102.32;;
70414;SDS011;57837;52.064;113.478;2023-11-19T12:49:55;243.20;;;100.83;;
70414;SDS011;57837;52.064;113.478;2023-11-19T12:53:01;225.25;;;85.95;;
70414;SDS011;57837;52.064;113.478;2023-11-19T12:56:09;246.25;;;98.43;;
70414;SDS011;57837;52.064;113.478;2023-11-19T12:59:13;256.52;;;100.38;;
70414;SDS011;57837;52.064;113.478;2023-11-19T13:02:17;193.13;;;74.43;;
70414;SDS011;57837;52.064;113.478;2023-11-19T13:05:23;182.32;;;70.50;;
70414;SDS011;57837;52.064;113.478;2023-11-19T13:08:38;188.52;;;71.40;;
70414;SDS011;57837;52.064;113.478;2023-11-19T13:11:49;177.70;;;63.38;;
70414;SDS011;57837;52.064;113.478;2023-11-19T13:14:54;166.20;;;67.07;;
70414;SDS011;57837;52.064;113.478;2023-11-19T13:17:58;167.30;;;63.60;;
70414;SDS011;57837;52.064;113.478;2023-11-19T13:21:04;201.02;;;69.03;;
70414;SDS011;57837;52.064;113.478;2023-11-19T13:24:08;196.70;;;72.20;;
70414;SDS011;57837;52.064;113.478;2023-11-19T13:27:13;174.10;;;66.00;;
70414;SDS011;57837;52.064;113.478;2023-11-19T13:30:19;206.00;;;76.75;;
70414;SDS011;57837;52.064;113.478;2023-11-19T13:33:26;182.13;;;68.03;;
70414;SDS011;57837;52.064;113.478;2023-11-19T13:36:30;193.27;;;74.70;;
70414;SDS011;57837;52.064;113.478;2023-11-19T13:39:34;253.05;;;98.90;;
70414;SDS011;57837;52.064;113.478;2023-11-19T13:42:40;182.98;;;70.97;;
70414;SDS011;57837;52.064;113.478;2023-11-19T13:45:47;194.83;;;77.73;;
70414;SDS011;57837;52.064;113.478;2023-11-19T13:48:53;227.50;;;85.88;;
70414;SDS011;57837;52.064;113.478;2023-11-19T13:51:57;184.77;;;72.18;;
70414;SDS011;57837;52.064;113.478;2023-11-19T13:55:26;235.57;;;88.05;;
70414;SDS011;57837;52.064;113.478;2023-11-19T13:58:31;201.57;;;87.23;;
70414;SDS011;57837;52.064;113.478;2023-11-19T14:01:35;183.93;;;66.95;;
70414;SDS011;57837;52.064;113.478;2023-11-19T14:04:40;158.48;;;62.53;;
70414;SDS011;57837;52.064;113.478;2023-11-19T14:07:45;164.50;;;56.75;;
70414;SDS011;57837;52.064;113.478;2023-11-19T14:10:56;127.40;;;51.20;;
70414;SDS011;57837;52.064;113.478;2023-11-19T14:14:02;152.00;;;54.25;;
70414;SDS011;57837;52.064;113.478;2023-11-19T14:17:06;132.88;;;48.22;;
70414;SDS011;57837;52.064;113.478;2023-11-19T14:20:14;96.00;;;36.87;;
70414;SDS011;57837;52.064;113.478;2023-11-19T14:23:17;98.38;;;43.47;;
70414;SDS011;57837;52.064;113.478;2023-11-19T14:26:21;93.53;;;34.38;;
70414;SDS011;57837;52.064;113.478;2023-11-19T14:29:25;125.47;;;42.90;;
70414;SDS011;57837;52.064;113.478;2023-11-19T14:32:32;147.43;;;55.70;;
70414;SDS011;57837;52.064;113.478;2023-11-19T14:35:36;148.07;;;54.90;;
70414;SDS011;57837;52.064;113.478;2023-11-19T14:38:39;174.45;;;64.03;;
70414;SDS011;57837;52.064;113.478;2023-11-19T14:41:44;183.73;;;69.20;;
70414;SDS011;57837;52.064;113.478;2023-11-19T14:44:47;167.35;;;62.00;;
70414;SDS011;57837;52.064;113.478;2023-11-19T14:47:51;178.57;;;68.20;;
70414;SDS011;57837;52.064;113.478;2023-11-19T14:50:55;173.87;;;65.33;;
70414;SDS011;57837;52.064;113.478;2023-11-19T14:53:59;182.45;;;67.93;;
70414;SDS011;57837;52.064;113.478;2023-11-19T14:57:03;177.20;;;66.45;;
70414;SDS011;57837;52.064;113.478;2023-11-19T15:00:08;190.88;;;70.68;;
70414;SDS011;57837;52.064;113.478;2023-11-19T15:03:16;170.82;;;61.15;;
70414;SDS011;57837;52.064;113.478;2023-11-19T15:06:25;133.20;;;53.63;;
70414;SDS011;57837;52.064;113.478;2023-11-19T15:09:30;202.25;;;81.32;;
70414;SDS011;57837;52.064;113.478;2023-11-19T15:12:36;195.67;;;72.47;;
70414;SDS011;57837;52.064;113.478;2023-11-19T15:15:42;187.02;;;72.20;;
70414;SDS011;57837;52.064;113.478;2023-11-19T15:18:46;183.82;;;72.15;;
70414;SDS011;57837;52.064;113.478;2023-11-19T15:21:50;241.10;;;101.10;;
70414;SDS011;57837;52.064;113.478;2023-11-19T15:24:54;181.45;;;70.00;;
70414;SDS011;57837;52.064;113.478;2023-11-19T15:27:57;201.52;;;75.43;;
70414;SDS011;57837;52.064;113.478;2023-11-19T15:31:00;330.38;;;118.50;;
70414;SDS011;57837;52.064;113.478;2023-11-19T15:34:05;409.55;;;148.40;;
70414;SDS011;57837;52.064;113.478;2023-11-19T15:37:09;340.50;;;121.88;;
70414;SDS011;57837;52.064;113.478;2023-11-19T15:40:15;405.05;;;140.23;;
70414;SDS011;57837;52.064;113.478;2023-11-19T15:43:19;269.10;;;99.70;;
70414;SDS011;57837;52.064;113.478;2023-11-19T15:46:25;264.23;;;96.75;;
70414;SDS011;57837;52.064;113.478;2023-11-19T15:49:29;213.27;;;77.65;;
70414;SDS011;57837;52.064;113.478;2023-11-19T15:52:32;225.43;;;84.17;;
70414;SDS011;57837;52.064;113.478;2023-11-19T15:55:36;228.32;;;88.25;;
70414;SDS011;57837;52.064;113.478;2023-11-19T15:58:40;244.48;;;91.28;;
70414;SDS011;57837;52.064;113.478;2023-11-19T16:01:44;272.67;;;105.00;;
70414;SDS011;57837;52.064;113.478;2023-11-19T16:04:48;326.52;;;125.60;;
70414;SDS011;57837;52.064;113.478;2023-11-19T16:07:53;296.70;;;106.93;;
70414;SDS011;57837;52.064;113.478;2023-11-19T16:10:57;193.30;;;72.70;;
70414;SDS011;57837;52.064;113.478;2023-11-19T16:14:01;118.03;;;43.63;;
70414;SDS011;57837;52.064;113.478;2023-11-19T16:17:05;116.00;;;41.83;;
70414;SDS011;57837;52.064;113.478;2023-11-19T16:20:10;102.35;;;36.90;;
70414;SDS011;57837;52.064;113.478;2023-11-19T16:23:14;103.20;;;35.97;;
70414;SDS011;57837;52.064;113.478;2023-11-19T16:26:20;102.22;;;41.60;;
70414;SDS011;57837;52.064;113.478;2023-11-19T16:29:23;111.45;;;40.83;;
70414;SDS011;57837;52.064;113.478;2023-11-19T16:32:27;124.70;;;46.00;;
70414;SDS011;57837;52.064;113.478;2023-11-19T16:35:30;109.03;;;40.97;;
70414;SDS011;57837;52.064;113.478;2023-11-19T16:38:34;118.35;;;44.55;;
70414;SDS011;57837;52.064;113.478;2023-11-19T16:41:38;136.07;;;51.53;;
70414;SDS011;57837;52.064;113.478;2023-11-19T16:44:45;134.57;;;47.10;;
70414;SDS011;57837;52.064;113.478;2023-11-19T16:47:49;111.90;;;43.58;;
70414;SDS011;57837;52.064;113.478;2023-11-19T16:50:56;130.25;;;48.95;;
70414;SDS011;57837;52.064;113.478;2023-11-19T16:54:03;98.53;;;35.20;;
70414;SDS011;57837;52.064;113.478;2023-11-19T16:57:07;95.25;;;35.47;;
70414;SDS011;57837;52.064;113.478;2023-11-19T17:00:12;102.50;;;36.22;;
70414;SDS011;57837;52.064;113.478;2023-11-19T17:03:18;123.60;;;41.97;;
70414;SDS011;57837;52.064;113.478;2023-11-19T17:06:22;104.30;;;37.88;;
70414;SDS011;57837;52.064;113.478;2023-11-19T17:09:25;96.80;;;38.55;;
70414;SDS011;57837;52.064;113.478;2023-11-19T17:12:31;123.45;;;42.05;;
70414;SDS011;57837;52.064;113.478;2023-11-19T17:15:35;138.73;;;50.47;;
70414;SDS011;57837;52.064;113.478;2023-11-19T17:18:40;134.25;;;51.28;;
70414;SDS011;57837;52.064;113.478;2023-11-19T17:21:44;139.73;;;50.92;;
70414;SDS011;57837;52.064;113.478;2023-11-19T17:24:47;144.20;;;50.23;;
70414;SDS011;57837;52.064;113.478;2023-11-19T17:27:51;127.30;;;47.85;;
70414;SDS011;57837;52.064;113.478;2023-11-19T17:30:56;140.65;;;55.78;;
70414;SDS011;57837;52.064;113.478;2023-11-19T17:34:03;132.10;;;51.60;;
70414;SDS011;57837;52.064;113.478;2023-11-19T17:37:07;119.65;;;45.20;;
70414;SDS011;57837;52.064;113.478;2023-11-19T17:40:11;104.35;;;38.97;;
70414;SDS011;57837;52.064;113.478;2023-11-19T17:43:16;152.18;;;51.25;;
70414;SDS011;57837;52.064;113.478;2023-11-19T17:46:22;103.13;;;40.63;;
70414;SDS011;57837;52.064;113.478;2023-11-19T17:49:25;86.97;;;32.60;;
70414;SDS011;57837;52.064;113.478;2023-11-19T17:52:30;78.35;;;32.20;;